Praia Lusitana — CUHX4 — position and weather

sailwx.info

Track history (hours):
 
Tides and Currents Weather Stations Pressure Air Temp Water Temp Dewpoint Dewpoint Depression Visibility Wind Speed Wind Dir Waves Ship Positions

Praia Lusitana

Last reported at 2018-Feb-17 18:30 UTC. Time now 2018-Feb-19 14:26 UTC.
Position N 39°10' W 009°27'.

Length 18 m.

Type: Fishing. MMSI: 263413350.

Date/timePositionNaut miles runAvg speedWind from/ knotsBaromVisibWave heightAir tempDewpointWater temp
2018-Feb-17 18:30N 39°10' W 009°27'4 7.2
2018-Feb-17 18:00N 39°06' W 009°29'4 7.3
2018-Feb-17 17:30N 39°03' W 009°30'4 7.3
2018-Feb-17 17:00N 38°59' W 009°31'4 7.1
2018-Feb-17 16:30N 38°56' W 009°31'4 7.4
2018-Feb-17 16:00N 38°52' W 009°31'4 7.7
2018-Feb-17 15:30N 38°48' W 009°32'4 7.4
2018-Feb-17 15:00N 38°44' W 009°32'4 7.4
2018-Feb-17 14:30N 38°41' W 009°30'4 7.8
2018-Feb-17 14:00N 38°38' W 009°28'4 8.4
2018-Feb-17 13:30N 38°34' W 009°24'4 8.0
2018-Feb-17 13:00N 38°31' W 009°21'4 8.0
2018-Feb-17 12:30N 38°28' W 009°18'4 8.2
2018-Feb-17 12:00N 38°25' W 009°15'18 2.4
2018-Feb-17 04:28N 38°08' W 009°07'4 7.8
2018-Feb-17 04:00N 38°04' W 009°07'2 4.1
2018-Feb-17 03:25N 38°02' W 009°07'0 0.3
2018-Feb-17 03:00N 38°02' W 009°07'0 0.5
2018-Feb-17 02:30N 38°02' W 009°07'0 0.7
2018-Feb-17 02:01N 38°02' W 009°07'1 1.0
2018-Feb-17 01:30N 38°03' W 009°08'12 0.9
2018-Feb-16 12:26N 37°51' W 009°13'1 1.6
2018-Feb-16 11:45N 37°52' W 009°13'7 1.1
2018-Feb-16 05:38N 37°52' W 009°05'1 7.6
2018-Feb-16 05:30N 37°52' W 009°03'4 7.7
2018-Feb-16 05:00N 37°54' W 008°59'4 7.7
2018-Feb-16 04:30N 37°56' W 008°55'2 4.8
2018-Feb-16 04:00N 37°57' W 008°52'0 0.0
2018-Feb-16 03:30N 37°57' W 008°52'0 0.0
2018-Feb-16 03:00N 37°57' W 008°52'0 0.0
2018-Feb-16 02:30N 37°57' W 008°52'0 0.0
2018-Feb-16 01:59N 37°57' W 008°52'0 0.0
2018-Feb-16 01:30N 37°57' W 008°52'0 0.0
2018-Feb-16 01:00N 37°57' W 008°52'0 0.0
2018-Feb-16 00:30N 37°57' W 008°52'0 0.0
2018-Feb-15 23:57N 37°57' W 008°52'0 0.0
2018-Feb-15 23:30N 37°57' W 008°52'0 0.0
2018-Feb-15 23:00N 37°57' W 008°52'0 0.0
2018-Feb-15 22:30N 37°57' W 008°52'0 0.0
2018-Feb-15 21:59N 37°57' W 008°52'0 0.0
2018-Feb-15 21:30N 37°57' W 008°52'0 0.2
2018-Feb-15 21:00N 37°57' W 008°52'0 0.0
2018-Feb-15 20:30N 37°57' W 008°52'2 5.0
2018-Feb-15 20:00N 37°56' W 008°55'4 8.7
2018-Feb-15 19:30N 37°54' W 008°60'4 8.7
2018-Feb-15 19:00N 37°53' W 009°05'4 8.0
2018-Feb-15 18:30N 37°52' W 009°10'2 4.7
2018-Feb-15 17:59N 37°51' W 009°13'17 0.4
2018-Feb-13 22:20N 37°56' W 008°53'1 3.9
2018-Feb-13 22:00N 37°57' W 008°52'0 0.0
2018-Feb-13 21:30N 37°57' W 008°52'0 0.2
2018-Feb-13 21:00N 37°57' W 008°52'4 7.0
2018-Feb-13 20:30N 37°55' W 008°56'4 8.4
2018-Feb-13 20:00N 37°54' W 009°01'4 8.6
2018-Feb-13 19:31N 37°53' W 009°06'4 8.3
2018-Feb-13 19:00N 37°52' W 009°11'3 0.5
2018-Feb-13 12:42N 37°49' W 009°13'0 0.0
2018-Feb-13 06:03N 37°49' W 009°13'0 0.3
2018-Feb-13 05:45N 37°49' W 009°13'1 2.6
2018-Feb-13 05:19N 37°48' W 009°13'0 1.1
2018-Feb-13 04:52N 37°48' W 009°13'3 3.3
2018-Feb-13 03:50N 37°52' W 009°12'1 3.3
2018-Feb-13 03:25N 37°53' W 009°12'1 3.4
2018-Feb-13 03:00N 37°54' W 009°12'2 3.3
2018-Feb-13 02:21N 37°56' W 009°12'1 3.3
2018-Feb-13 01:58N 37°58' W 009°11'2 3.3
2018-Feb-13 01:30N 37°59' W 009°11'2 3.3
2018-Feb-13 01:00N 38°01' W 009°10'2 3.1
2018-Feb-13 00:30N 38°02' W 009°09'3 5.5
2018-Feb-13 00:00N 38°05' W 009°09'1 1.0
2018-Feb-12 23:30N 38°05' W 009°09'2 3.3
2018-Feb-12 22:59N 38°03' W 009°10'2 3.3
2018-Feb-12 22:30N 38°01' W 009°10'2 3.3
2018-Feb-12 22:00N 37°60' W 009°11'2 3.3
2018-Feb-12 21:30N 37°58' W 009°12'4 3.3
2018-Feb-12 20:23N 37°55' W 009°14'1 3.3
2018-Feb-12 20:00N 37°54' W 009°13'4 0.3
2018-Feb-12 06:42N 37°50' W 009°12'0 0.8
2018-Feb-12 06:29N 37°50' W 009°12'0 0.2
2018-Feb-12 06:00N 37°50' W 009°12'0 0.6
2018-Feb-12 05:29N 37°50' W 009°13'1 2.9
2018-Feb-12 05:00N 37°48' W 009°12'53 6.0
2018-Feb-11 20:12N 37°06' W 008°32'2 7.6
2018-Feb-11 19:59N 37°08' W 008°32'0 0.6
2018-Feb-11 19:22N 37°08' W 008°32'1 3.4
2018-Feb-11 18:56N 37°07' W 008°32'4 8.6
2018-Feb-11 18:28N 37°03' W 008°30'  
2018-Feb-08 22:30N 37°08' W 008°32'  
Track history (hours):
 
Tides and Currents Weather Stations Pressure Air Temp Water Temp Dewpoint Dewpoint Depression Visibility Wind Speed Wind Dir Waves Ship Positions

Praia Lusitana

Last reported at 2018-Feb-17 18:30 UTC. Time now 2018-Feb-19 14:26 UTC.
Position N 39°10' W 009°27'.

Length 18 m.

Type: Fishing. MMSI: 263413350.

Date/timePositionNaut miles runAvg speedWind from/ knotsBaromVisibWave heightAir tempDewpointWater temp
2018-Feb-17 18:30N 39°10' W 009°27'4 7.2
2018-Feb-17 18:00N 39°06' W 009°29'4 7.3
2018-Feb-17 17:30N 39°03' W 009°30'4 7.3
2018-Feb-17 17:00N 38°59' W 009°31'4 7.1
2018-Feb-17 16:30N 38°56' W 009°31'4 7.4
2018-Feb-17 16:00N 38°52' W 009°31'4 7.7
2018-Feb-17 15:30N 38°48' W 009°32'4 7.4
2018-Feb-17 15:00N 38°44' W 009°32'4 7.4
2018-Feb-17 14:30N 38°41' W 009°30'4 7.8
2018-Feb-17 14:00N 38°38' W 009°28'4 8.4
2018-Feb-17 13:30N 38°34' W 009°24'4 8.0
2018-Feb-17 13:00N 38°31' W 009°21'4 8.0
2018-Feb-17 12:30N 38°28' W 009°18'4 8.2
2018-Feb-17 12:00N 38°25' W 009°15'18 2.4
2018-Feb-17 04:28N 38°08' W 009°07'4 7.8
2018-Feb-17 04:00N 38°04' W 009°07'2 4.1
2018-Feb-17 03:25N 38°02' W 009°07'0 0.3
2018-Feb-17 03:00N 38°02' W 009°07'0 0.5
2018-Feb-17 02:30N 38°02' W 009°07'0 0.7
2018-Feb-17 02:01N 38°02' W 009°07'1 1.0
2018-Feb-17 01:30N 38°03' W 009°08'12 0.9
2018-Feb-16 12:26N 37°51' W 009°13'1 1.6
2018-Feb-16 11:45N 37°52' W 009°13'7 1.1
2018-Feb-16 05:38N 37°52' W 009°05'1 7.6
2018-Feb-16 05:30N 37°52' W 009°03'4 7.7
2018-Feb-16 05:00N 37°54' W 008°59'4 7.7
2018-Feb-16 04:30N 37°56' W 008°55'2 4.8
2018-Feb-16 04:00N 37°57' W 008°52'0 0.0
2018-Feb-16 03:30N 37°57' W 008°52'0 0.0
2018-Feb-16 03:00N 37°57' W 008°52'0 0.0
2018-Feb-16 02:30N 37°57' W 008°52'0 0.0
2018-Feb-16 01:59N 37°57' W 008°52'0 0.0
2018-Feb-16 01:30N 37°57' W 008°52'0 0.0
2018-Feb-16 01:00N 37°57' W 008°52'0 0.0
2018-Feb-16 00:30N 37°57' W 008°52'0 0.0
2018-Feb-15 23:57N 37°57' W 008°52'0 0.0
2018-Feb-15 23:30N 37°57' W 008°52'0 0.0
2018-Feb-15 23:00N 37°57' W 008°52'0 0.0
2018-Feb-15 22:30N 37°57' W 008°52'0 0.0
2018-Feb-15 21:59N 37°57' W 008°52'0 0.0
2018-Feb-15 21:30N 37°57' W 008°52'0 0.2
2018-Feb-15 21:00N 37°57' W 008°52'0 0.0
2018-Feb-15 20:30N 37°57' W 008°52'2 5.0
2018-Feb-15 20:00N 37°56' W 008°55'4 8.7
2018-Feb-15 19:30N 37°54' W 008°60'4 8.7
2018-Feb-15 19:00N 37°53' W 009°05'4 8.0
2018-Feb-15 18:30N 37°52' W 009°10'2 4.7
2018-Feb-15 17:59N 37°51' W 009°13'17 0.4
2018-Feb-13 22:20N 37°56' W 008°53'1 3.9
2018-Feb-13 22:00N 37°57' W 008°52'0 0.0
2018-Feb-13 21:30N 37°57' W 008°52'0 0.2
2018-Feb-13 21:00N 37°57' W 008°52'4 7.0
2018-Feb-13 20:30N 37°55' W 008°56'4 8.4
2018-Feb-13 20:00N 37°54' W 009°01'4 8.6
2018-Feb-13 19:31N 37°53' W 009°06'4 8.3
2018-Feb-13 19:00N 37°52' W 009°11'3 0.5
2018-Feb-13 12:42N 37°49' W 009°13'0 0.0
2018-Feb-13 06:03N 37°49' W 009°13'0 0.3
2018-Feb-13 05:45N 37°49' W 009°13'1 2.6
2018-Feb-13 05:19N 37°48' W 009°13'0 1.1
2018-Feb-13 04:52N 37°48' W 009°13'3 3.3
2018-Feb-13 03:50N 37°52' W 009°12'1 3.3
2018-Feb-13 03:25N 37°53' W 009°12'1 3.4
2018-Feb-13 03:00N 37°54' W 009°12'2 3.3
2018-Feb-13 02:21N 37°56' W 009°12'1 3.3
2018-Feb-13 01:58N 37°58' W 009°11'2 3.3
2018-Feb-13 01:30N 37°59' W 009°11'2 3.3
2018-Feb-13 01:00N 38°01' W 009°10'2 3.1
2018-Feb-13 00:30N 38°02' W 009°09'3 5.5
2018-Feb-13 00:00N 38°05' W 009°09'1 1.0
2018-Feb-12 23:30N 38°05' W 009°09'2 3.3
2018-Feb-12 22:59N 38°03' W 009°10'2 3.3
2018-Feb-12 22:30N 38°01' W 009°10'2 3.3
2018-Feb-12 22:00N 37°60' W 009°11'2 3.3
2018-Feb-12 21:30N 37°58' W 009°12'4 3.3
2018-Feb-12 20:23N 37°55' W 009°14'1 3.3
2018-Feb-12 20:00N 37°54' W 009°13'4 0.3
2018-Feb-12 06:42N 37°50' W 009°12'0 0.8
2018-Feb-12 06:29N 37°50' W 009°12'0 0.2
2018-Feb-12 06:00N 37°50' W 009°12'0 0.6
2018-Feb-12 05:29N 37°50' W 009°13'1 2.9
2018-Feb-12 05:00N 37°48' W 009°12'53 6.0
2018-Feb-11 20:12N 37°06' W 008°32'2 7.6
2018-Feb-11 19:59N 37°08' W 008°32'0 0.6
2018-Feb-11 19:22N 37°08' W 008°32'1 3.4
2018-Feb-11 18:56N 37°07' W 008°32'4 8.6
2018-Feb-11 18:28N 37°03' W 008°30'  
2018-Feb-08 22:30N 37°08' W 008°32'  

Dump ship's entire track history